Aérodrome :
LOGIN :

S'inscrire | Disclaimer

   EN    FR    IT 

 










Légende :    VFR   VFR Marginal   IFR   IFR Intensif   IFR Très Intensif
Visi : 
Plafond : 
>= 8 km
>= 3000ft
5 à 8 km
1000 à 3000 ft
1500m à 5 km
500 à 1000 ft
800 à 1500m
200 à 500 ft
< 800m
< 200 ft
Symboles :   Orages  Brouillard  Fortes neiges  Fortes précipitations  Vent > 20 kt
SIGMETs :   Divers  Orages  Givrage  Turbulence  Onde Orograph.  Cendres Volcan.






- Altitude de l'aérodrome : 70 ft
- Code IATA : LEI


LEAM - Almeria

DERNIER METAR :
  • 051730Z 28011G21KT 250V330 CAVOK 13/M04 Q1007

METARs EXPIRÉS :
  • 051700Z 32015KT CAVOK 13/M04 Q1006
  • 051630Z 30012G25KT 270V340 CAVOK 14/M05 Q1006
  • 051600Z 29013KT 260V320 9999 FEW050 14/M03 Q1006
  • 051530Z 22007KT 190V250 9999 FEW040 15/03 Q1006
  • 051500Z 22008KT 9999 FEW025 15/02 Q1005

TAF TAF LEAM
Valide du 05 à 15h jusqu'au 06 à 15h UTC


051400Z 0515/0615 23010KT 9999 FEW030 TX16/0613Z TN08/0607Z
BECMG 0516/0518 32012KT
PROB30
TEMPO 0518/0524 32018G28KT
PROB40
TEMPO 0607/0612 32020G30KT
TEMPO 0612/0615 22010KT



MET'MAP, la Météo Aéronautique d'un coup d'oeil ! - Copyright ORBIFLY Décembre 2007 - Disclaimer

ORBIFLY MET'MAP TEAM :

Programmation & Développement : Alexandra Zaïnal
Sur une idée originale de : Baudouin d'Aumeries
Assistance à la programmation : Marc-Olivier Méhu
Soutien technique & logistique : Manuel Goepfert

Contact : metmap@orbifly.com




SOURCES & CREDITS :

   NOAA